Albert, Texas
Current Conditions -  °F | °C
As of 4:15 PM on Friday 31 Oct 2014 (Local Time) from KT82 Reporting Station
Clear Clear  
Wind Chill: 71°   Ceiling: Unl
Heat Index: 71°   Visibility: 10mi
Dew Point: 36°   Wind: 13mph
Humidity: 28%   Direction: 30°NNE
Pressure: 30.26"   Gusts: 17mph
Location:  30.2109°N, 98.6562°W
Report Text: KT82 312115Z AUTO 03011G15KT 10SM CLR 22/02 A3026 RMK AO2 T02150020
Loading
Personal Weather Stations






























Interactive Weather Map
Tropical Storm Tracking
New forecast layout! Learn more

10-Day Weather Forecast

Advertisements
Track Severe Weather on mobile